createdAt,value
2023-04-18T00:01:40.574Z,76.57
2023-04-18T00:04:08.812Z,76.78
2023-04-18T00:06:35.660Z,76.85
2023-04-18T00:09:02.448Z,77.46
2023-04-18T00:11:29.243Z,76.79
2023-04-18T00:13:56.781Z,77.29
2023-04-18T00:16:24.063Z,77.01
2023-04-18T00:18:51.994Z,76.85
2023-04-18T00:21:18.619Z,77.10
2023-04-18T00:23:45.841Z,77.62
2023-04-18T00:26:12.684Z,77.40
2023-04-18T00:28:39.284Z,77.10
2023-04-18T00:31:06.067Z,78.00
2023-04-18T00:33:34.187Z,77.43
2023-04-18T00:36:00.890Z,77.91
2023-04-18T00:38:27.488Z,77.86
2023-04-18T00:40:54.123Z,78.26
2023-04-18T00:43:23.635Z,77.80
2023-04-18T00:45:50.582Z,78.77
2023-04-18T00:48:18.091Z,78.51
2023-04-18T00:50:45.460Z,78.60
2023-04-18T00:53:13.258Z,78.98
2023-04-18T00:55:41.496Z,79.28
2023-04-18T00:58:08.137Z,79.25
2023-04-18T01:00:34.809Z,79.67
2023-04-18T01:03:01.705Z,79.15
2023-04-18T01:05:28.660Z,79.46
2023-04-18T01:07:55.381Z,79.05
2023-04-18T01:10:22.084Z,79.02
2023-04-18T01:12:48.732Z,78.42
2023-04-18T01:15:15.382Z,79.75
2023-04-18T01:17:42.070Z,79.55
2023-04-18T01:20:09.261Z,79.63
2023-04-18T01:22:35.937Z,79.92
2023-04-18T01:25:07.520Z,80.20
2023-04-18T01:27:34.128Z,79.21
2023-04-18T01:30:00.777Z,80.10
2023-04-18T01:32:27.514Z,79.21
2023-04-18T01:34:54.154Z,79.18
2023-04-18T01:37:20.818Z,78.70
2023-04-18T01:39:47.815Z,79.32
2023-04-18T01:42:14.439Z,79.67
2023-04-18T01:44:41.053Z,78.78
2023-04-18T01:47:07.719Z,78.91
2023-04-18T01:49:34.309Z,79.50
2023-04-18T01:52:00.902Z,79.39
2023-04-18T01:54:27.573Z,79.32
2023-04-18T01:56:54.201Z,79.24
2023-04-18T01:59:20.849Z,79.29
2023-04-18T02:01:47.468Z,79.65
2023-04-18T02:04:14.366Z,79.10
2023-04-18T02:06:41.145Z,79.14
2023-04-18T02:09:07.766Z,79.84
2023-04-18T02:11:34.399Z,79.97
2023-04-18T02:14:01.012Z,80.21
2023-04-18T02:16:27.721Z,79.90
2023-04-18T02:18:54.397Z,79.82
2023-04-18T02:21:21.029Z,80.25
2023-04-18T02:23:47.622Z,79.75
2023-04-18T02:26:15.863Z,79.19
2023-04-18T02:28:42.475Z,79.25
2023-04-18T02:31:09.106Z,77.67
2023-04-18T02:33:35.720Z,77.56
2023-04-18T02:36:02.319Z,78.94
2023-04-18T02:38:28.925Z,78.74
2023-04-18T02:40:55.619Z,79.22
2023-04-18T02:43:22.217Z,79.80
2023-04-18T02:45:48.866Z,79.58
2023-04-18T02:48:15.658Z,79.36
2023-04-18T02:50:42.331Z,80.40
2023-04-18T02:53:09.001Z,80.03
2023-04-18T02:55:35.665Z,79.26
2023-04-18T02:58:02.278Z,79.66
2023-04-18T03:00:29.179Z,79.76
2023-04-18T03:02:55.902Z,80.58
2023-04-18T03:05:22.638Z,79.79
2023-04-18T03:07:49.312Z,79.05
2023-04-18T03:10:15.941Z,78.92
2023-04-18T03:12:42.597Z,78.55
2023-04-18T03:15:09.663Z,79.64
2023-04-18T03:17:36.433Z,77.64
2023-04-18T03:20:03.171Z,78.13
2023-04-18T03:22:29.788Z,78.10
2023-04-18T03:24:56.417Z,78.81
2023-04-18T03:27:23.025Z,78.89
2023-04-18T03:29:49.614Z,78.78
2023-04-18T03:32:16.220Z,78.93
2023-04-18T03:34:42.834Z,78.49
2023-04-18T03:37:09.512Z,77.94
2023-04-18T03:39:36.120Z,77.50
2023-04-18T03:42:02.741Z,76.47
2023-04-18T03:44:29.340Z,76.83
2023-04-18T03:46:56.070Z,75.86
2023-04-18T03:49:22.793Z,72.72
2023-04-18T03:51:50.488Z,71.96
2023-04-18T03:54:17.744Z,74.13
2023-04-18T03:56:45.072Z,72.06
2023-04-18T03:59:12.011Z,72.38
2023-04-18T04:01:38.819Z,71.28
2023-04-18T04:04:05.671Z,68.51
2023-04-18T04:06:32.436Z,70.36
2023-04-18T04:08:59.050Z,70.56
2023-04-18T04:11:27.074Z,70.14
2023-04-18T04:13:53.700Z,70.05
2023-04-18T04:16:20.465Z,72.04
2023-04-18T04:18:47.125Z,70.34
2023-04-18T04:21:13.759Z,68.79
2023-04-18T04:23:40.358Z,68.24
2023-04-18T04:26:06.990Z,68.83
2023-04-18T04:28:33.761Z,69.24
2023-04-18T04:31:00.348Z,69.20
2023-04-18T04:33:26.991Z,69.43
2023-04-18T04:35:53.688Z,66.75
2023-04-18T04:38:20.331Z,67.15
2023-04-18T04:40:47.110Z,67.51
2023-04-18T04:43:13.745Z,67.21
2023-04-18T04:45:40.752Z,66.89
2023-04-18T04:48:08.574Z,68.27
2023-04-18T04:50:37.652Z,65.99
2023-04-18T04:53:05.497Z,65.13
2023-04-18T04:55:32.446Z,64.43
2023-04-18T04:57:59.107Z,65.26
2023-04-18T05:00:26.033Z,64.62
2023-04-18T05:02:56.346Z,64.58
2023-04-18T05:05:23.191Z,63.48
2023-04-18T05:07:50.392Z,63.43
2023-04-18T05:10:17.010Z,63.96
2023-04-18T05:12:43.660Z,64.01
2023-04-18T05:15:11.044Z,65.93
2023-04-18T05:17:37.775Z,66.50
2023-04-18T05:20:05.566Z,64.41
2023-04-18T05:22:32.597Z,63.76
2023-04-18T05:24:59.212Z,63.40
2023-04-18T05:27:27.833Z,63.18
2023-04-18T05:29:54.851Z,62.83
2023-04-18T05:32:21.493Z,63.29
2023-04-18T05:34:48.719Z,63.02
2023-04-18T05:37:15.363Z,62.88
2023-04-18T05:39:42.281Z,62.54
2023-04-18T05:42:08.912Z,63.33
2023-04-18T05:44:36.540Z,63.71
2023-04-18T05:47:04.397Z,63.26
2023-04-18T05:49:31.315Z,62.37
2023-04-18T05:51:58.170Z,62.66
2023-04-18T05:54:24.859Z,62.79
2023-04-18T05:56:51.558Z,61.82
2023-04-18T05:59:18.192Z,64.71
2023-04-18T06:01:44.805Z,62.94
2023-04-18T06:04:11.794Z,62.39
2023-04-18T06:06:38.747Z,61.41
2023-04-18T06:09:05.375Z,60.46
2023-04-18T06:11:32.042Z,60.22
2023-04-18T06:13:58.724Z,59.62
2023-04-18T06:16:25.366Z,60.17
2023-04-18T06:18:52.086Z,59.56
2023-04-18T06:21:18.769Z,58.51
2023-04-18T06:23:45.615Z,58.99
2023-04-18T06:26:12.448Z,58.59
2023-04-18T06:28:39.111Z,58.06
2023-04-18T06:31:05.772Z,57.65
2023-04-18T06:33:33.404Z,57.79
2023-04-18T06:36:00.140Z,57.61
2023-04-18T06:38:26.900Z,59.03
2023-04-18T06:40:53.561Z,59.12
2023-04-18T06:43:20.204Z,58.56
2023-04-18T06:45:46.887Z,58.69
2023-04-18T06:48:13.673Z,60.09
2023-04-18T06:50:40.303Z,59.85
2023-04-18T06:53:06.971Z,62.75
2023-04-18T06:55:33.677Z,61.00
2023-04-18T06:58:00.352Z,61.06
2023-04-18T07:00:27.145Z,60.46
2023-04-18T07:02:53.925Z,60.25
2023-04-18T07:05:20.874Z,59.59
2023-04-18T07:07:47.711Z,58.18
2023-04-18T07:10:14.396Z,59.99
2023-04-18T07:12:41.102Z,60.34
2023-04-18T07:15:08.294Z,57.99
2023-04-18T07:17:35.094Z,59.03
2023-04-18T07:20:01.861Z,59.22
2023-04-18T07:22:28.726Z,58.71
2023-04-18T07:24:55.459Z,59.38
2023-04-18T07:27:22.090Z,58.74
2023-04-18T07:29:48.698Z,57.73
2023-04-18T07:32:15.483Z,56.75
2023-04-18T07:34:42.113Z,59.18
2023-04-18T07:37:08.804Z,58.70
2023-04-18T07:39:35.425Z,57.63
2023-04-18T07:42:03.729Z,57.15
2023-04-18T07:44:30.390Z,56.52
2023-04-18T07:46:57.208Z,57.18
2023-04-18T07:49:23.876Z,55.81
2023-04-18T07:51:50.536Z,54.90
2023-04-18T07:54:17.242Z,54.26
2023-04-18T07:56:43.869Z,51.72
2023-04-18T07:59:11.681Z,51.62
2023-04-18T08:01:38.330Z,49.96
2023-04-18T08:04:05.310Z,49.73
2023-04-18T08:06:32.061Z,49.30
2023-04-18T08:08:58.807Z,50.50
2023-04-18T08:11:26.750Z,49.95
2023-04-18T08:13:53.431Z,47.37
2023-04-18T08:16:20.119Z,47.09
2023-04-18T08:18:46.926Z,47.42
2023-04-18T08:21:13.586Z,46.27
2023-04-18T08:23:40.509Z,46.08
2023-04-18T08:26:07.153Z,43.97
2023-04-18T08:28:33.757Z,42.73
2023-04-18T08:31:00.384Z,44.12
2023-04-18T08:33:27.051Z,45.67
2023-04-18T08:35:54.812Z,48.22
2023-04-18T08:38:21.466Z,47.28
2023-04-18T08:40:48.480Z,45.51
2023-04-18T08:43:15.223Z,44.69
2023-04-18T08:45:43.035Z,43.70
2023-04-18T08:48:17.099Z,43.31
2023-04-18T08:50:45.065Z,45.56
2023-04-18T08:53:12.177Z,46.74
2023-04-18T08:55:38.810Z,48.60
2023-04-18T08:58:05.457Z,45.89
2023-04-18T09:00:32.788Z,45.33
2023-04-18T09:02:59.555Z,45.64
2023-04-18T09:05:27.054Z,46.49
2023-04-18T09:07:55.676Z,47.90
2023-04-18T09:10:29.193Z,48.75
2023-04-18T09:12:57.732Z,48.07
2023-04-18T09:15:25.914Z,46.67
2023-04-18T09:17:54.637Z,48.40
2023-04-18T09:20:36.225Z,49.53
2023-04-18T09:23:08.592Z,51.13
2023-04-18T09:25:44.496Z,51.34
2023-04-18T09:28:33.477Z,51.42
2023-04-18T09:31:03.236Z,53.54
2023-04-18T09:33:31.549Z,53.94
2023-04-18T09:36:17.307Z,53.86
2023-04-18T09:38:44.435Z,53.62
2023-04-18T09:41:13.171Z,53.45
2023-04-18T09:43:40.800Z,53.61
2023-04-18T09:46:08.631Z,53.56
2023-04-18T09:48:35.810Z,52.58
2023-04-18T09:51:07.948Z,52.56
2023-04-18T09:53:39.448Z,53.42
2023-04-18T09:56:19.649Z,53.84
2023-04-18T09:58:50.529Z,53.38
2023-04-18T10:01:17.445Z,53.66
2023-04-18T10:03:50.297Z,53.13
2023-04-18T10:06:17.869Z,52.55
2023-04-18T10:08:47.703Z,53.38
2023-04-18T10:11:15.194Z,53.73
2023-04-18T10:13:47.304Z,52.48
2023-04-18T10:16:16.521Z,52.43
2023-04-18T10:18:43.480Z,53.34
2023-04-18T10:21:10.081Z,53.06
2023-04-18T10:23:40.377Z,54.55
2023-04-18T10:26:10.999Z,56.22
2023-04-18T10:28:58.094Z,53.94
2023-04-18T10:31:29.301Z,53.87
2023-04-18T10:36:30.096Z,54.13
2023-04-18T10:39:20.756Z,53.02
2023-04-18T10:41:51.444Z,52.73
2023-04-18T10:44:20.540Z,53.16
2023-04-18T10:46:53.208Z,52.67
2023-04-18T10:49:27.349Z,53.15
2023-04-18T10:51:57.779Z,52.60
2023-04-18T10:54:27.515Z,51.59
2023-04-18T10:56:58.237Z,51.64
2023-04-18T10:59:26.318Z,51.99
2023-04-18T11:02:27.079Z,53.40
2023-04-18T11:04:58.708Z,52.20
2023-04-18T11:07:42.084Z,53.55
2023-04-18T11:10:09.761Z,51.57
2023-04-18T11:12:38.745Z,50.84
2023-04-18T11:15:20.754Z,50.83
2023-04-18T11:17:59.097Z,51.47
2023-04-18T11:20:26.555Z,51.17
2023-04-18T11:22:55.566Z,51.85
2023-04-18T11:25:29.375Z,52.01
2023-04-18T11:27:59.604Z,52.64
2023-04-18T11:30:26.292Z,51.72
2023-04-18T11:32:53.047Z,50.76
2023-04-18T11:35:19.905Z,50.46
2023-04-18T11:37:46.517Z,51.64
2023-04-18T11:40:14.053Z,52.22
2023-04-18T11:42:41.926Z,52.50
2023-04-18T11:45:17.300Z,51.54
2023-04-18T11:47:45.940Z,51.06
2023-04-18T11:50:13.705Z,51.08
2023-04-18T11:52:41.776Z,49.60
2023-04-18T11:55:15.514Z,49.90
2023-04-18T11:57:42.251Z,49.06
2023-04-18T12:00:10.119Z,49.65
2023-04-18T12:02:46.808Z,49.13
2023-04-18T12:05:28.506Z,49.36
2023-04-18T12:07:56.454Z,50.19
2023-04-18T12:10:24.646Z,49.99
2023-04-18T12:12:59.057Z,50.21
2023-04-18T12:15:28.077Z,51.17
2023-04-18T12:18:05.621Z,48.54
2023-04-18T12:20:38.596Z,48.89
2023-04-18T12:23:06.994Z,48.07
2023-04-18T12:25:33.711Z,47.84
2023-04-18T12:28:03.669Z,49.06
2023-04-18T12:30:35.382Z,48.52
2023-04-18T12:33:05.044Z,48.01
2023-04-18T12:35:32.713Z,48.16
2023-04-18T12:38:02.218Z,47.51
2023-04-18T12:40:30.072Z,47.31
2023-04-18T12:42:56.859Z,47.78
2023-04-18T12:45:24.045Z,45.99
2023-04-18T12:47:52.575Z,47.46
2023-04-18T12:50:22.922Z,46.32
2023-04-18T12:52:52.534Z,46.75
2023-04-18T12:55:19.855Z,46.20
2023-04-18T12:57:46.676Z,45.35
2023-04-18T13:00:13.874Z,46.80
2023-04-18T13:02:43.634Z,47.49
2023-04-18T13:05:15.968Z,47.77
2023-04-18T13:07:43.859Z,47.29
2023-04-18T13:10:16.273Z,46.70
2023-04-18T13:12:42.932Z,46.69
2023-04-18T13:15:10.268Z,45.89
2023-04-18T13:17:37.952Z,46.12
2023-04-18T13:20:06.734Z,45.76
2023-04-18T13:22:33.912Z,45.04
2023-04-18T13:25:00.560Z,45.23
2023-04-18T13:27:27.420Z,45.20
2023-04-18T13:29:54.195Z,44.10
2023-04-18T13:32:21.250Z,45.03
2023-04-18T13:34:48.439Z,45.55
2023-04-18T13:37:15.771Z,44.58
2023-04-18T13:39:42.673Z,45.07
2023-04-18T13:42:12.656Z,44.51
2023-04-18T13:44:40.122Z,44.26
2023-04-18T13:47:07.507Z,43.53
2023-04-18T13:49:35.755Z,44.57
2023-04-18T13:52:03.304Z,45.58
2023-04-18T13:54:32.083Z,44.84
2023-04-18T13:57:01.507Z,45.64
2023-04-18T13:59:28.571Z,45.46
2023-04-18T14:01:55.879Z,45.11
2023-04-18T14:04:23.571Z,45.21
2023-04-18T14:06:50.531Z,45.42
2023-04-18T14:09:17.928Z,45.51
2023-04-18T14:11:45.489Z,46.16
2023-04-18T14:14:14.644Z,45.34
2023-04-18T14:16:43.623Z,45.72
2023-04-18T14:19:10.264Z,45.16
2023-04-18T14:21:36.960Z,46.06
2023-04-18T14:24:05.615Z,45.95
2023-04-18T14:26:32.234Z,46.00
2023-04-18T14:28:58.916Z,46.70
2023-04-18T14:31:25.578Z,46.81
2023-04-18T14:33:52.256Z,47.10
2023-04-18T14:36:18.873Z,45.58
2023-04-18T14:38:49.037Z,43.98
2023-04-18T14:41:16.207Z,45.05
2023-04-18T14:43:42.942Z,45.34
2023-04-18T14:46:13.916Z,47.51
2023-04-18T14:48:40.721Z,48.25
2023-04-18T14:51:07.413Z,48.31
2023-04-18T14:53:34.078Z,49.28
2023-04-18T14:56:03.419Z,48.87
2023-04-18T14:58:30.282Z,49.48
2023-04-18T15:00:56.907Z,49.92
2023-04-18T15:03:23.674Z,49.84
2023-04-18T15:05:50.335Z,48.43
2023-04-18T15:08:17.219Z,47.16
2023-04-18T15:10:43.883Z,46.33
2023-04-18T15:13:11.132Z,47.20
2023-04-18T15:15:38.813Z,45.82
2023-04-18T15:18:07.135Z,46.32
2023-04-18T15:20:34.649Z,46.26
2023-04-18T15:23:01.647Z,46.33
2023-04-18T15:25:28.458Z,44.83
2023-04-18T15:27:55.073Z,45.12
2023-04-18T15:30:21.780Z,44.50
2023-04-18T15:32:48.543Z,45.86
2023-04-18T15:35:15.274Z,46.06
2023-04-18T15:37:41.924Z,47.06
2023-04-18T15:40:09.121Z,47.77
2023-04-18T15:42:35.857Z,47.09
2023-04-18T15:45:04.353Z,47.50
2023-04-18T15:47:33.286Z,46.96
2023-04-18T15:50:00.524Z,47.57
2023-04-18T15:52:27.165Z,47.78
2023-04-18T15:54:53.985Z,48.24
2023-04-18T15:57:20.610Z,48.22
2023-04-18T15:59:47.233Z,48.44
2023-04-18T16:02:14.029Z,49.57
2023-04-18T16:04:40.792Z,48.00
2023-04-18T16:07:07.440Z,47.96
2023-04-18T16:09:34.098Z,48.22
2023-04-18T16:12:00.707Z,48.68
2023-04-18T16:14:27.336Z,48.81
2023-04-18T16:16:53.997Z,47.73
2023-04-18T16:19:20.662Z,46.49
2023-04-18T16:21:47.406Z,46.55
2023-04-18T16:24:19.597Z,46.71
2023-04-18T16:26:46.273Z,47.21
2023-04-18T16:29:12.936Z,47.45
2023-04-18T16:31:39.578Z,47.25
2023-04-18T16:34:06.382Z,47.40
2023-04-18T16:36:33.475Z,46.78
2023-04-18T16:39:00.116Z,45.53
2023-04-18T16:41:26.804Z,45.61
2023-04-18T16:43:53.447Z,45.26
2023-04-18T16:46:20.085Z,44.36
2023-04-18T16:48:46.703Z,43.93
2023-04-18T16:51:13.379Z,43.89
2023-04-18T16:53:40.091Z,42.88
2023-04-18T16:56:06.813Z,41.94
2023-04-18T16:58:33.450Z,42.33
2023-04-18T17:01:01.790Z,42.02
2023-04-18T17:03:28.571Z,43.09
2023-04-18T17:05:55.730Z,42.19
2023-04-18T17:08:22.385Z,41.58
2023-04-18T17:10:51.754Z,41.68
2023-04-18T17:13:18.521Z,41.57
2023-04-18T17:15:45.267Z,43.18
2023-04-18T17:18:12.010Z,41.48
2023-04-18T17:20:39.574Z,41.78
2023-04-18T17:23:06.302Z,41.69
2023-04-18T17:25:32.898Z,40.97
2023-04-18T17:27:59.536Z,41.28
2023-04-18T17:30:26.217Z,41.01
2023-04-18T17:32:52.912Z,43.06
2023-04-18T17:35:19.800Z,44.99
2023-04-18T17:37:47.320Z,46.56
2023-04-18T17:40:14.215Z,48.37
2023-04-18T17:42:40.990Z,50.56
2023-04-18T17:45:09.746Z,51.57
2023-04-18T17:47:39.084Z,52.59
2023-04-18T17:50:06.620Z,53.55
2023-04-18T17:52:33.371Z,54.49
2023-04-18T17:55:00.655Z,55.05
2023-04-18T17:57:27.612Z,55.15
2023-04-18T17:59:54.266Z,55.40
2023-04-18T18:02:21.014Z,55.83
2023-04-18T18:04:47.661Z,55.70
2023-04-18T18:07:14.285Z,56.57
2023-04-18T18:09:40.958Z,56.86
2023-04-18T18:12:09.044Z,57.43
2023-04-18T18:14:35.769Z,57.65
2023-04-18T18:17:03.003Z,58.00
2023-04-18T18:19:29.821Z,58.03
2023-04-18T18:21:56.573Z,58.14
2023-04-18T18:24:23.218Z,58.42
2023-04-18T18:26:51.961Z,58.61
2023-04-18T18:29:18.812Z,58.81
2023-04-18T18:31:45.574Z,58.65
2023-04-18T18:34:12.292Z,58.44
2023-04-18T18:36:38.954Z,58.43
2023-04-18T18:39:05.595Z,58.63
2023-04-18T18:41:32.210Z,59.36
2023-04-18T18:43:58.864Z,59.09
2023-04-18T18:46:25.611Z,59.39
2023-04-18T18:48:52.271Z,59.32
2023-04-18T18:51:18.995Z,59.92
2023-04-18T18:53:46.535Z,60.26
2023-04-18T18:56:13.321Z,60.78
2023-04-18T18:58:39.929Z,60.28
2023-04-18T19:01:06.772Z,60.51
2023-04-18T19:03:33.506Z,60.84
2023-04-18T19:06:00.296Z,61.22
2023-04-18T19:08:26.919Z,61.19
2023-04-18T19:10:53.543Z,60.97
2023-04-18T19:13:22.024Z,61.19
2023-04-18T19:15:48.903Z,61.47
2023-04-18T19:18:15.641Z,61.26
2023-04-18T19:20:42.311Z,61.08
2023-04-18T19:23:08.925Z,61.11
2023-04-18T19:25:35.616Z,61.28
2023-04-18T19:28:02.392Z,60.99
2023-04-18T19:30:29.191Z,61.42
2023-04-18T19:32:55.847Z,60.97
2023-04-18T19:35:22.719Z,61.74
2023-04-18T19:37:49.570Z,61.70
2023-04-18T19:40:16.388Z,61.39
2023-04-18T19:42:43.080Z,61.39
2023-04-18T19:45:10.243Z,61.21
2023-04-18T19:47:36.946Z,61.83
2023-04-18T19:50:03.926Z,61.35
2023-04-18T19:52:30.592Z,62.07
2023-04-18T19:54:57.213Z,61.31
2023-04-18T19:57:23.806Z,61.64
2023-04-18T19:59:50.458Z,61.60
2023-04-18T20:02:17.116Z,61.76
2023-04-18T20:04:44.099Z,61.38
2023-04-18T20:07:10.910Z,61.81
2023-04-18T20:09:37.556Z,61.93
2023-04-18T20:12:04.324Z,62.23
2023-04-18T20:14:32.084Z,61.95
2023-04-18T20:16:58.684Z,62.14
2023-04-18T20:19:25.332Z,61.88
2023-04-18T20:21:52.337Z,62.11
2023-04-18T20:24:18.989Z,61.87
2023-04-18T20:26:45.579Z,62.03
2023-04-18T20:29:12.445Z,62.22
2023-04-18T20:31:42.274Z,62.75
2023-04-18T20:34:08.921Z,62.53
2023-04-18T20:36:36.897Z,62.55
2023-04-18T20:39:03.528Z,62.40
2023-04-18T20:41:30.289Z,62.53
2023-04-18T20:43:56.993Z,62.89
2023-04-18T20:46:23.827Z,62.62
2023-04-18T20:48:50.480Z,62.58
2023-04-18T20:51:17.092Z,62.99
2023-04-18T20:53:43.722Z,63.55
2023-04-18T20:56:10.323Z,62.96
2023-04-18T20:58:38.382Z,63.40
2023-04-18T21:01:05.053Z,63.55
2023-04-18T21:03:31.857Z,63.25
2023-04-18T21:05:58.611Z,64.11
2023-04-18T21:08:25.188Z,64.31
2023-04-18T21:10:52.072Z,64.60
2023-04-18T21:13:18.793Z,64.15
2023-04-18T21:15:45.447Z,64.40
2023-04-18T21:18:12.139Z,64.68
2023-04-18T21:20:38.850Z,65.44
2023-04-18T21:23:05.508Z,64.41
2023-04-18T21:25:32.118Z,65.37
2023-04-18T21:27:58.737Z,65.02
2023-04-18T21:30:25.569Z,65.49
2023-04-18T21:32:52.266Z,66.01
2023-04-18T21:35:20.266Z,66.34
2023-04-18T21:37:48.603Z,66.30
2023-04-18T21:40:15.433Z,67.00
2023-04-18T21:42:42.107Z,67.18
2023-04-18T21:45:10.089Z,67.17
2023-04-18T21:47:36.788Z,66.96
2023-04-18T21:50:03.944Z,67.07
2023-04-18T21:52:30.574Z,67.81
2023-04-18T21:54:57.184Z,67.65
2023-04-18T21:57:23.842Z,67.57
2023-04-18T21:59:50.469Z,67.24
2023-04-18T22:02:17.645Z,67.75
2023-04-18T22:04:44.348Z,67.29
2023-04-18T22:07:10.983Z,68.20
2023-04-18T22:09:37.945Z,68.45
2023-04-18T22:12:04.891Z,68.35
2023-04-18T22:14:31.542Z,68.26
2023-04-18T22:16:58.358Z,67.40
2023-04-18T22:19:25.598Z,68.65
2023-04-18T22:21:52.295Z,68.71
2023-04-18T22:24:19.016Z,68.97
2023-04-18T22:26:45.638Z,68.70
2023-04-18T22:29:12.273Z,69.18
2023-04-18T22:31:38.897Z,69.42
2023-04-18T22:34:05.524Z,69.39
2023-04-18T22:36:32.191Z,69.25
2023-04-18T22:38:58.800Z,69.97
2023-04-18T22:41:25.414Z,69.63
2023-04-18T22:43:52.098Z,69.95
2023-04-18T22:46:18.777Z,68.85
2023-04-18T22:48:45.490Z,69.19
2023-04-18T22:51:12.120Z,69.82
2023-04-18T22:53:38.777Z,70.57
2023-04-18T22:56:05.755Z,70.99
2023-04-18T22:58:32.528Z,70.26
2023-04-18T23:00:59.629Z,70.22
2023-04-18T23:03:26.411Z,70.66
2023-04-18T23:05:53.121Z,70.61
2023-04-18T23:08:19.787Z,70.96
2023-04-18T23:10:46.462Z,70.97
2023-04-18T23:13:13.717Z,70.22
2023-04-18T23:15:40.375Z,69.84
2023-04-18T23:18:07.108Z,70.19
2023-04-18T23:20:33.877Z,70.59
2023-04-18T23:23:00.966Z,70.20
2023-04-18T23:25:27.762Z,69.86
2023-04-18T23:27:54.368Z,69.52
2023-04-18T23:30:21.060Z,70.48
2023-04-18T23:32:47.752Z,70.63
2023-04-18T23:35:14.595Z,70.67
2023-04-18T23:37:41.187Z,71.19
2023-04-18T23:40:08.503Z,71.17
2023-04-18T23:42:35.585Z,71.43
2023-04-18T23:45:03.354Z,71.10
2023-04-18T23:47:30.407Z,70.65
2023-04-18T23:49:57.053Z,72.04
2023-04-18T23:52:23.700Z,71.67
2023-04-18T23:54:50.305Z,71.50
2023-04-18T23:57:16.961Z,72.21
2023-04-18T23:59:43.611Z,70.96
